• Join FlightAware (Why Join?)
  • Login
  • US Flag 
01:10AM EDT


 

Airport Tracker/Info


-or-


 

Live Flight TrackerFlight Track Log ✈ N411AJ ✈ 18-Sep-2013 ✈ KSLN - KSDL

Flight Track Log - Related Links

Times and Time Zones

All times are in EDT time to prevent confusion due to time zone crossing. See the N411AJ flight status page for this flight to view local times or setup timezone preferences in your user account.

Time Position Orientation Groundspeed Altitude Reporting Facility
EDT Latitude Longitude Course Direction KTS MPH feet Rate Location/Type
06:07PM 38.8619 -97.5947 353° North 274 315 10,400  Level Kansas City Center
06:08PM 38.9344 -97.6600 325° Northwest 303 349 14,400 3,540 Climbing Kansas City Center
06:09PM 38.9739 -97.7561 298° West 336 387 17,800 3,960 Climbing Kansas City Center
06:10PM 38.5419 -98.5221 264° West  Level Estimated
06:10PM 38.9836 -97.8886 275° West 336 387 22,600  Level Kansas City Center
06:11PM 38.5059 -98.6458 250° West  Level Estimated
06:11PM 38.9856 -98.0175 271° West 357 411 23,400  Level Kansas City Center
06:12PM 38.9639 -98.1644 259° West 410 472 25,000 1,740 Climbing Kansas City Center
06:13PM 38.9906 -98.3189 283° West 444 511 27,000 1,920 Climbing Kansas City Center
06:14PM 39.0469 -98.4603 297° West 448 516 29,000 1,980 Climbing Kansas City Center
06:15PM 39.0908 -98.6119 290° West 452 520 31,200 2,460 Climbing Kansas City Center
06:16PM 39.1494 -98.7811 294° West 433 498 34,200 2,220 Climbing Kansas City Center
06:17PM 39.2061 -98.9131 299° West 423 487 35,900 1,680 Climbing Kansas City Center
06:18PM 39.2917 -99.0211 316° Northwest 428 493 37,700 1,380 Climbing Kansas City Center
06:20PM 39.3539 -99.1469 303° West 422 486 38,800 960 Climbing Kansas City Center
06:20PM 39.3600 -99.2269 276° West 408 470 39,400 1,020 Climbing Denver Center
06:21PM 39.2997 -99.4278 249° West 414 476 40,800 1,080 Climbing Denver Center
06:22PM 39.2575 -99.5581 247° West 412 474 41,900 1,080 Climbing Denver Center
06:23PM 39.2078 -99.7158 248° West 403 464 43,100 600 Climbing Denver Center
06:25PM 39.1669 -99.8389 247° West 394 453 43,200  Climbing Denver Center
06:26PM 39.1267 -99.9642 248° West 395 455 43,200  Level Denver Center
06:27PM 39.0825 -100.1006 247° West 392 451 43,200  Level Denver Center
06:28PM 39.0358 -100.2439 247° West 389 448 43,200  Level Denver Center
06:29PM 38.9947 -100.3675 247° West 391 450 43,200  Level Denver Center
06:30PM 38.9511 -100.4961 246° West 392 451 43,200  Level Denver Center
06:31PM 38.9044 -100.6378 247° West 387 445 43,200  Level Denver Center
06:32PM 38.8639 -100.7608 247° West 390 449 43,200  Level Denver Center
06:33PM 38.8167 -100.9025 247° West 388 447 43,200  Level Denver Center
06:34PM 38.7758 -101.0222 246° West 386 444 43,200  Level Denver Center
06:35PM 38.7286 -101.1611 246° West 382 440 43,200  Level Denver Center
06:36PM 38.6878 -101.2811 246° West 382 440 43,200  Level Denver Center
06:37PM 38.6397 -101.4203 246° West 384 442 43,200 -120 Level Denver Center
06:38PM 38.5994 -101.5403 247° West 386 444 43,000 -120 Descending Denver Center
06:39PM 38.5514 -101.6797 246° West 386 444 43,000  Level Denver Center
06:40PM 38.5106 -101.7989 246° West 384 442 43,000  Level Denver Center
06:41PM 38.4631 -101.9347 246° West 379 436 43,000  Level Denver Center
06:42PM 38.4214 -102.0539 246° West 383 441 43,000  Level Denver Center
06:43PM 38.3744 -102.1897 246° West 378 435 43,000  Level Denver Center
06:44PM 38.3314 -102.3078 245° Southwest 384 442 43,000  Level Denver Center
06:45PM 38.2836 -102.4436 246° West 378 435 43,000  Level Denver Center
06:46PM 38.2442 -102.5581 246° West 373 429 43,000  Level Denver Center
06:47PM 38.1947 -102.6933 245° Southwest 378 435 43,000  Level Denver Center
06:48PM 38.1644 -102.8131 252° West 375 432 43,000  Level Denver Center
06:49PM 38.1286 -102.9533 252° West 374 430 43,000  Level Denver Center
06:50PM 38.0986 -103.0736 252° West 375 432 43,000  Level Denver Center
06:51PM 38.0625 -103.2103 251° West 375 432 43,000  Level Denver Center
06:52PM 38.0358 -103.3106 251° West 376 433 43,000  Level Denver Center
06:53PM 37.9947 -103.4708 252° West 376 433 43,000  Level Denver Center
06:54PM 37.9622 -103.5911 251° West 378 435 43,000  Level Denver Center
06:56PM 37.9250 -103.7331 252° West 381 438 43,000  Level Denver Center
06:57PM 37.8942 -103.8539 252° West 381 438 43,000  Level Denver Center
06:58PM 37.8611 -103.9744 251° West 381 438 43,000  Level Denver Center
06:59PM 37.8172 -104.1347 251° West 382 440 43,000  Level Denver Center
07:00PM 37.7789 -104.2756 251° West 383 441 43,000  Level Denver Center
07:01PM 37.7467 -104.3953 251° West 380 437 43,000  Level Denver Center
07:02PM 37.7092 -104.5344 251° West 377 434 43,000  Level Denver Center
07:03PM 37.6753 -104.6544 250° West 379 436 43,000  Level Denver Center
07:04PM 37.6367 -104.7953 251° West 382 440 43,000  Level Denver Center
07:05PM 37.6031 -104.9164 251° West 384 442 43,000  Level Denver Center
07:06PM 37.5578 -105.0783 251° West 386 444 43,000  Level Denver Center
07:07PM 37.5197 -105.2139 251° West 386 444 43,000  Level Denver Center
07:08PM 37.4864 -105.3358 251° West 386 444 43,000  Level Denver Center
07:09PM 37.4447 -105.4764 250° West 386 444 43,000  Level Denver Center
07:10PM 37.4100 -105.5981 250° West 387 445 43,000  Level Denver Center
07:11PM 37.3708 -105.7386 251° West 384 442 43,000  Level Denver Center
07:12PM 37.3367 -105.8581 250° West 381 438 43,000  Level Denver Center
07:13PM 37.3006 -106.0006 252° West 383 441 43,000  Level Denver Center
07:15PM 37.2703 -106.1233 253° West 385 443 43,000  Level Denver Center
07:16PM 37.2350 -106.2644 253° West 381 438 43,000  Level Denver Center
07:17PM 37.2042 -106.3853 252° West 380 437 43,000  Level Denver Center
07:18PM 37.1667 -106.5272 252° West 382 440 43,000  Level Denver Center
07:19PM 37.1356 -106.6464 252° West 378 435 43,000  Level Denver Center
07:20PM 37.1000 -106.7889 253° West 382 440 43,000  Level Denver Center
07:21PM 37.0675 -106.9078 251° West 377 434 43,000  Level Denver Center
07:22PM 37.0361 -107.0269 252° West 377 434 43,000  Level Denver Center
07:23PM 37.0000 -107.1653 252° West 376 433 43,000  Level Denver Center
07:24PM 36.9575 -107.3258 252° West 382 440 43,000  Level Denver Center
07:25PM 36.9244 -107.4461 251° West 383 441 43,000  Level Denver Center
07:26PM 36.8878 -107.5900 252° West 387 445 43,000  Level Denver Center
07:27PM 36.8539 -107.7111 251° West 387 445 43,000  Level Denver Center
07:28PM 36.8150 -107.8536 251° West 388 447 43,000  Level Denver Center
07:29PM 36.7806 -107.9778 251° West 393 452 43,000  Level Denver Center
07:30PM 36.7406 -108.1242 251° West 398 458 43,000  Level Denver Center
07:31PM 36.6883 -108.2381 240° Southwest 399 459 43,000  Level Denver Center
07:32PM 36.6306 -108.3747 242° Southwest 397 457 43,000  Level Denver Center
07:33PM 36.5808 -108.4917 242° Southwest 400 460 43,000  Level Denver Center
07:35PM 36.5147 -108.6461 242° Southwest 398 458 43,000  Level Denver Center
07:36PM 36.4650 -108.7617 242° Southwest 398 458 43,000  Level Denver Center
07:37PM 36.4078 -108.8947 242° Southwest 394 453 43,000  Level Denver Center
07:38PM 36.3589 -109.0075 242° Southwest 392 451 43,000  Level Denver Center
07:39PM 36.3019 -109.1369 241° Southwest 387 445 43,000  Level Denver Center
07:40PM 36.2522 -109.2478 241° Southwest 387 445 43,000  Level Denver Center
07:41PM 36.1867 -109.3956 241° Southwest 386 444 43,000  Level Denver Center
07:42PM 36.1294 -109.5261 242° Southwest 387 445 43,000  Level Denver Center
07:43PM 36.0794 -109.6369 241° Southwest 387 445 43,000  Level Denver Center
07:44PM 36.0217 -109.7681 241° Southwest 388 447 43,000 -420 Level Denver Center
07:45PM 35.9722 -109.8789 241° Southwest 387 445 42,200 -1,560 Descending Denver Center
07:46PM 35.9136 -110.0103 241° Southwest 390 449 39,800 -2,100 Descending Denver Center
07:47PM 35.8622 -110.1231 241° Southwest 393 452 37,900 -2,160 Descending Denver Center
07:48PM 35.8006 -110.2556 240° Southwest 396 456 35,400 -1,920 Descending Denver Center
07:49PM 35.7492 -110.3728 242° Southwest 402 463 34,000 -720 Descending Denver Center
07:50PM 35.6967 -110.4867 240° Southwest 402 463 34,000 -180 Level Denver Center
07:51PM 35.6353 -110.6214 241° Southwest 403 464 33,700 -780 Descending Denver Center
07:52PM 35.5814 -110.7383 240° Southwest 407 468 32,500 -1,440 Descending Denver Center
07:53PM 35.5172 -110.8764 240° Southwest 413 475 30,800 -1,320 Descending Denver Center
07:55PM 35.4489 -111.0156 239° Southwest 424 488 29,600 -1,200 Descending Albuquerque Center
07:56PM 35.3347 -111.1114 214° Southwest 441 507 28,200 -840 Descending Albuquerque Center
07:57PM 35.2303 -111.1906 212° Southwest 443 510 28,000 -120 Descending Albuquerque Center
07:58PM 35.1236 -111.2669 210° Southwest 445 512 28,000 -300 Level Albuquerque Center
07:59PM 35.0164 -111.3436 210° Southwest 446 513 27,500 -1,440 Descending Albuquerque Center
08:00PM 34.9111 -111.4194 211° Southwest 442 509 25,200 -2,100 Descending Albuquerque Center
08:01PM 34.8022 -111.4908 208° Southwest 445 512 23,200 -1,860 Descending Albuquerque Center
08:02PM 34.6928 -111.5561 206° Southwest 441 507 21,400 -1,920 Descending Albuquerque Center
08:03PM 34.5667 -111.6319 206° Southwest 427 491 19,400 -1,860 Descending Albuquerque Center
08:04PM 34.4650 -111.6936 207° Southwest 415 478 17,600 -1,740 Descending Albuquerque Center
08:05PM 34.3639 -111.7536 206° Southwest 409 471 15,900 -1,740 Descending Albuquerque Center
08:06PM 34.2642 -111.8031 202° Southwest 398 458 14,100 -1,980 Descending Albuquerque Center
08:07PM 34.1586 -111.8189 187° South 385 443 11,900 -1,860 Descending Albuquerque Center
08:08PM 34.0694 -111.8333 188° South 326 375 10,300 -1,800 Descending Albuquerque Center
08:09PM 33.9775 -111.8475 187° South 291 335 8,300 -1,740 Descending Albuquerque Center
08:10PM 33.9044 -111.8619 189° South 276 318 6,800 -1,500 Descending Albuquerque Center
08:11PM 33.8339 -111.8739 188° South 262 302 5,300 -1,260 Descending Albuquerque Center
08:12PM 33.7647 -111.8794 184° South 252 290 4,200 -840 Descending Albuquerque Center
08:13PM 33.7033 -111.8756 177° South 225 259 3,600 -960 Descending Albuquerque Center
08:14PM 33.6556 -111.8750 179° South 167 192 2,300 -1,020 Descending Albuquerque Center
08:15PM 33.6297 -111.9053 224° Southwest 141 162 1,600 -720 Descending Albuquerque Center
08:17PM 33.6229 -111.9105 North  Level Estimated